Portada
METAR-TAF:

METAR-TAF

Aeroports :

Dubuque, Iowa, Estats Units d'Amèrica

latitud: 42-23-52N, longitud: 090-42-13W, altitud: 328 m

Observació

L'informe es va fer fa 30 minuts, a les 16:53 UTC
Vent 12 kt del Oest/Sud-Oest
Temperatura -3°C
Humitat 86%
Pressió 1024 hPa
Visibilitat: 6.4 km
Cel clar
boirina

METAR: KDBQ 101653Z 25012KT 4SM BR CLR M03/M05 A3023 RMK AO2 SLP253 T10281050

Hora: 11:23 (17:23 UTC)

Pronòstic

L'informe es va fer fa 1 hora i 22 minuts, a les 16:01 UTC
Pronòstic vàlid del 10 a les 16 UTC al 11 a les 12 UTC
Vent 8 kt del Sud-Oest
Visibilitat: 10 km
Cel clar
Temporalment
l' 10 a les 16 UTC al 10 a les 17 UTC
Visibilitat: 3.2 km
boirina

TAF: KDBQ 101601Z 1016/1112 23008KT P6SM SKC TEMPO 1016/1017 2SM BR

Observacions i pronòstics meteorològics de més de 4000 aeroports (METAR i TAF).

Les estacions disponibles són els punts grocs i vermells al mapa.

Posi el ratolí al punt desitjat per veure el nom de l'estació.

Feu clic per veure les observacions i els pronòstics meteorològics.

Per canviar el mapa: feu clic els botons verds amb una creu de color negre per apropar; al botó verd amb un guió per allunyar la imatge; o en les fletxes verdes per a mapes adjacents.


METAR-TAF: